Erdenemandal, Mongolia
Current Conditions -  °F | °C
As of 2:00 AM on Tuesday 25 Nov 2014 (Local Time) from ZMUB Reporting Station
Clear Clear  
Wind Chill:   Ceiling: Unl
Heat Index:   Visibility: 6mi
Dew Point: -4°   Wind: 2mph
Humidity: 72%   Direction: NA
Pressure: 29.59"   Gusts: NA
Location:  48.53°N, 101.37°E
Report Text: ZMUB 241800Z VRB01MPS CAVOK M16/M20 Q1002 NOSIG RMK QFE645.5 69
Loading
Personal Weather Stations






























Interactive Weather Map New forecast layout! Learn more

10-Day Weather Forecast

Advertisements
Track Severe Weather on mobile